Portada
METAR-TAF:

METAR-TAF

Aeropuertos :

Aeropuerto Internacional de Moscú-Sheremétievo

Moscú-Sheremetyevo, Rusia

latitud: 55-58N, longitud: 037-25E, altitud: 190 m

Observación

El informe se hizo hace 32 minutos, a las 03:00 UTC
Viento 12 kt del noreste
Temperatura 13°C
Humedad 62%
Presión 1025 hPa
Visibilidad 10 km o más
Cielo nuboso a una altura de 2700 ft

METAR: UUEE 250300Z 04006MPS 9999 BKN027 13/06 Q1025 R06R/CLRD62 NOSIG

Hora: 06:32 (03:32 UTC)

Pronóstico

El informe se hizo hace 1 hora y 34 minutos, a las 01:58 UTC
Pronóstico válido del 25 a las 03 UTC al 26 a las 03 UTC
Viento 8 kt del norte
Visibilidad 10 km o más
Cielo nuboso a una altura de 1100 ft

TAF: UUEE 250158Z 2503/2603 01004MPS 9999 BKN011 TX20/2513Z TN07/2602Z

Observaciones y pronósticos meteorológicos de más de 4000 aeropuertos (mensajes METAR y TAF).

Los puntos amarillos y rojos representan las estaciones disponibles.

Ponga el ratón en el punto deseado para ver el nombre de la estación.

Haga clic para ver las observaciones y los pronósticos meteorológicos.

Para cambiar el mapa : haga clic en los botones verdes con una cruz de color negro para hacer un zoom, en el botón verde con un guión para alejar o en las flechas verdes para mapas adyacentes.


METAR-TAF: